Aviation Digital Data Service (ADDS)

Output produced by TAFs form (0940 UTC 20 December 2014)
found at http://aviationweather.gov/adds/tafs/
 
KROW 200538Z 2006/2106 31005KT P6SM SKC 
     FM201900 15007KT P6SM SCT250